sensor_id;sensor_type;location;lat;lon;timestamp;P1;durP1;ratioP1;P2;durP2;ratioP2
18104;SDS011;9179;50.968;3.134;2022-08-19T00:00:30;26.98;;;20.95;;
18104;SDS011;9179;50.968;3.134;2022-08-19T00:02:57;23.85;;;20.52;;
18104;SDS011;9179;50.968;3.134;2022-08-19T00:05:24;22.98;;;19.40;;
18104;SDS011;9179;50.968;3.134;2022-08-19T00:07:51;23.75;;;20.77;;
18104;SDS011;9179;50.968;3.134;2022-08-19T00:10:18;28.63;;;22.02;;
18104;SDS011;9179;50.968;3.134;2022-08-19T00:12:46;25.45;;;21.83;;
18104;SDS011;9179;50.968;3.134;2022-08-19T00:15:14;25.60;;;20.38;;
18104;SDS011;9179;50.968;3.134;2022-08-19T00:17:44;24.17;;;21.35;;
18104;SDS011;9179;50.968;3.134;2022-08-19T00:20:13;27.58;;;20.33;;
18104;SDS011;9179;50.968;3.134;2022-08-19T00:22:43;23.63;;;20.30;;
18104;SDS011;9179;50.968;3.134;2022-08-19T00:25:10;26.00;;;21.58;;
18104;SDS011;9179;50.968;3.134;2022-08-19T00:27:38;26.55;;;21.00;;
18104;SDS011;9179;50.968;3.134;2022-08-19T00:30:05;24.02;;;20.92;;
18104;SDS011;9179;50.968;3.134;2022-08-19T00:32:35;26.08;;;20.98;;
18104;SDS011;9179;50.968;3.134;2022-08-19T00:35:04;28.20;;;20.50;;
18104;SDS011;9179;50.968;3.134;2022-08-19T00:37:31;25.17;;;20.25;;
18104;SDS011;9179;50.968;3.134;2022-08-19T00:40:00;26.98;;;19.45;;
18104;SDS011;9179;50.968;3.134;2022-08-19T00:42:28;26.73;;;20.80;;
18104;SDS011;9179;50.968;3.134;2022-08-19T00:44:55;23.00;;;18.65;;
18104;SDS011;9179;50.968;3.134;2022-08-19T00:47:22;22.17;;;19.33;;
18104;SDS011;9179;50.968;3.134;2022-08-19T00:49:50;24.25;;;19.80;;
18104;SDS011;9179;50.968;3.134;2022-08-19T00:52:21;21.92;;;18.70;;
18104;SDS011;9179;50.968;3.134;2022-08-19T00:54:54;25.23;;;19.83;;
18104;SDS011;9179;50.968;3.134;2022-08-19T00:57:23;23.50;;;20.05;;
18104;SDS011;9179;50.968;3.134;2022-08-19T01:00:02;23.48;;;18.67;;
18104;SDS011;9179;50.968;3.134;2022-08-19T01:02:32;25.30;;;19.08;;
18104;SDS011;9179;50.968;3.134;2022-08-19T01:04:59;24.48;;;20.17;;
18104;SDS011;9179;50.968;3.134;2022-08-19T01:07:28;20.88;;;18.55;;
18104;SDS011;9179;50.968;3.134;2022-08-19T01:09:55;24.95;;;19.23;;
18104;SDS011;9179;50.968;3.134;2022-08-19T01:12:22;24.65;;;19.15;;
18104;SDS011;9179;50.968;3.134;2022-08-19T01:14:49;25.42;;;19.02;;
18104;SDS011;9179;50.968;3.134;2022-08-19T01:17:17;24.45;;;19.10;;
18104;SDS011;9179;50.968;3.134;2022-08-19T01:19:45;24.98;;;19.90;;
18104;SDS011;9179;50.968;3.134;2022-08-19T01:22:16;24.73;;;19.02;;
18104;SDS011;9179;50.968;3.134;2022-08-19T01:24:48;20.88;;;17.08;;
18104;SDS011;9179;50.968;3.134;2022-08-19T01:27:16;24.58;;;19.42;;
18104;SDS011;9179;50.968;3.134;2022-08-19T01:29:43;24.63;;;19.63;;
18104;SDS011;9179;50.968;3.134;2022-08-19T01:32:11;24.13;;;19.08;;
18104;SDS011;9179;50.968;3.134;2022-08-19T01:34:40;25.23;;;18.88;;
18104;SDS011;9179;50.968;3.134;2022-08-19T01:37:12;23.85;;;19.38;;
18104;SDS011;9179;50.968;3.134;2022-08-19T01:39:40;27.38;;;19.40;;
18104;SDS011;9179;50.968;3.134;2022-08-19T01:42:09;23.63;;;19.15;;
18104;SDS011;9179;50.968;3.134;2022-08-19T01:44:37;23.80;;;17.65;;
18104;SDS011;9179;50.968;3.134;2022-08-19T01:47:06;22.45;;;18.13;;
18104;SDS011;9179;50.968;3.134;2022-08-19T01:49:34;26.50;;;19.27;;
18104;SDS011;9179;50.968;3.134;2022-08-19T01:52:03;22.80;;;17.48;;
18104;SDS011;9179;50.968;3.134;2022-08-19T01:54:31;19.50;;;17.33;;
18104;SDS011;9179;50.968;3.134;2022-08-19T01:56:59;21.45;;;18.10;;
18104;SDS011;9179;50.968;3.134;2022-08-19T01:59:30;22.65;;;17.88;;
18104;SDS011;9179;50.968;3.134;2022-08-19T02:01:58;25.30;;;17.25;;
18104;SDS011;9179;50.968;3.134;2022-08-19T02:04:26;20.25;;;16.70;;
18104;SDS011;9179;50.968;3.134;2022-08-19T02:06:52;21.77;;;16.30;;
18104;SDS011;9179;50.968;3.134;2022-08-19T02:09:19;24.65;;;16.05;;
18104;SDS011;9179;50.968;3.134;2022-08-19T02:11:46;19.25;;;16.33;;
18104;SDS011;9179;50.968;3.134;2022-08-19T02:14:13;20.27;;;15.18;;
18104;SDS011;9179;50.968;3.134;2022-08-19T02:16:41;17.55;;;15.07;;
18104;SDS011;9179;50.968;3.134;2022-08-19T02:19:08;19.40;;;16.02;;
18104;SDS011;9179;50.968;3.134;2022-08-19T02:21:35;17.70;;;15.05;;
18104;SDS011;9179;50.968;3.134;2022-08-19T02:24:02;17.83;;;15.13;;
18104;SDS011;9179;50.968;3.134;2022-08-19T02:26:30;25.48;;;15.02;;
18104;SDS011;9179;50.968;3.134;2022-08-19T02:28:58;19.35;;;15.55;;
18104;SDS011;9179;50.968;3.134;2022-08-19T02:31:25;18.70;;;14.88;;
18104;SDS011;9179;50.968;3.134;2022-08-19T02:33:55;17.40;;;14.75;;
18104;SDS011;9179;50.968;3.134;2022-08-19T02:36:22;16.63;;;13.68;;
18104;SDS011;9179;50.968;3.134;2022-08-19T02:38:50;21.30;;;15.63;;
18104;SDS011;9179;50.968;3.134;2022-08-19T02:41:17;19.35;;;14.75;;
18104;SDS011;9179;50.968;3.134;2022-08-19T02:43:46;15.05;;;13.15;;
18104;SDS011;9179;50.968;3.134;2022-08-19T02:46:14;17.50;;;15.25;;
18104;SDS011;9179;50.968;3.134;2022-08-19T02:48:46;17.25;;;13.18;;
18104;SDS011;9179;50.968;3.134;2022-08-19T02:51:18;16.70;;;13.55;;
18104;SDS011;9179;50.968;3.134;2022-08-19T02:53:46;14.32;;;12.40;;
18104;SDS011;9179;50.968;3.134;2022-08-19T02:56:13;16.70;;;14.43;;
18104;SDS011;9179;50.968;3.134;2022-08-19T02:58:41;20.02;;;15.27;;
18104;SDS011;9179;50.968;3.134;2022-08-19T03:01:08;15.60;;;13.93;;
18104;SDS011;9179;50.968;3.134;2022-08-19T03:03:36;17.17;;;14.48;;
18104;SDS011;9179;50.968;3.134;2022-08-19T03:06:04;17.90;;;13.68;;
18104;SDS011;9179;50.968;3.134;2022-08-19T03:08:34;15.40;;;12.35;;
18104;SDS011;9179;50.968;3.134;2022-08-19T03:11:02;15.02;;;12.55;;
18104;SDS011;9179;50.968;3.134;2022-08-19T03:13:30;16.02;;;13.65;;
18104;SDS011;9179;50.968;3.134;2022-08-19T03:15:57;16.25;;;12.48;;
18104;SDS011;9179;50.968;3.134;2022-08-19T03:18:24;16.70;;;12.27;;
18104;SDS011;9179;50.968;3.134;2022-08-19T03:20:52;14.55;;;13.07;;
18104;SDS011;9179;50.968;3.134;2022-08-19T03:23:19;18.20;;;13.68;;
18104;SDS011;9179;50.968;3.134;2022-08-19T03:25:49;16.05;;;12.45;;
18104;SDS011;9179;50.968;3.134;2022-08-19T03:28:17;16.35;;;12.05;;
18104;SDS011;9179;50.968;3.134;2022-08-19T03:30:54;16.23;;;13.52;;
18104;SDS011;9179;50.968;3.134;2022-08-19T03:33:22;14.32;;;12.73;;
18104;SDS011;9179;50.968;3.134;2022-08-19T03:35:59;18.88;;;12.52;;
18104;SDS011;9179;50.968;3.134;2022-08-19T03:38:27;13.23;;;11.88;;
18104;SDS011;9179;50.968;3.134;2022-08-19T03:40:55;16.67;;;11.90;;
18104;SDS011;9179;50.968;3.134;2022-08-19T03:43:22;14.18;;;12.75;;
18104;SDS011;9179;50.968;3.134;2022-08-19T03:45:58;16.58;;;11.85;;
18104;SDS011;9179;50.968;3.134;2022-08-19T03:48:26;13.90;;;11.98;;
18104;SDS011;9179;50.968;3.134;2022-08-19T03:50:53;14.10;;;11.35;;
18104;SDS011;9179;50.968;3.134;2022-08-19T03:53:19;13.52;;;10.95;;
18104;SDS011;9179;50.968;3.134;2022-08-19T03:55:46;12.18;;;10.90;;
18104;SDS011;9179;50.968;3.134;2022-08-19T03:58:15;16.77;;;11.63;;
18104;SDS011;9179;50.968;3.134;2022-08-19T04:00:41;11.75;;;9.65;;
18104;SDS011;9179;50.968;3.134;2022-08-19T04:03:08;15.38;;;10.77;;
18104;SDS011;9179;50.968;3.134;2022-08-19T04:05:35;14.93;;;10.73;;
18104;SDS011;9179;50.968;3.134;2022-08-19T04:08:03;12.07;;;10.68;;
18104;SDS011;9179;50.968;3.134;2022-08-19T04:10:30;18.60;;;10.73;;
18104;SDS011;9179;50.968;3.134;2022-08-19T04:13:01;15.52;;;11.27;;
18104;SDS011;9179;50.968;3.134;2022-08-19T04:15:30;13.45;;;10.82;;
18104;SDS011;9179;50.968;3.134;2022-08-19T04:18:00;18.63;;;12.15;;
18104;SDS011;9179;50.968;3.134;2022-08-19T04:20:27;16.60;;;11.63;;
18104;SDS011;9179;50.968;3.134;2022-08-19T04:22:56;12.23;;;9.38;;
18104;SDS011;9179;50.968;3.134;2022-08-19T04:25:23;12.65;;;10.52;;
18104;SDS011;9179;50.968;3.134;2022-08-19T04:27:50;16.42;;;11.18;;
18104;SDS011;9179;50.968;3.134;2022-08-19T04:30:17;16.35;;;10.50;;
18104;SDS011;9179;50.968;3.134;2022-08-19T04:32:45;14.10;;;10.38;;
18104;SDS011;9179;50.968;3.134;2022-08-19T04:35:12;18.30;;;10.90;;
18104;SDS011;9179;50.968;3.134;2022-08-19T04:37:39;17.55;;;10.40;;
18104;SDS011;9179;50.968;3.134;2022-08-19T04:40:06;11.60;;;9.75;;
18104;SDS011;9179;50.968;3.134;2022-08-19T04:42:52;14.52;;;9.77;;
18104;SDS011;9179;50.968;3.134;2022-08-19T04:45:18;13.07;;;9.50;;
18104;SDS011;9179;50.968;3.134;2022-08-19T04:47:47;15.25;;;10.93;;
18104;SDS011;9179;50.968;3.134;2022-08-19T04:50:14;12.50;;;10.52;;
18104;SDS011;9179;50.968;3.134;2022-08-19T04:52:41;11.20;;;9.57;;
18104;SDS011;9179;50.968;3.134;2022-08-19T04:55:08;13.23;;;9.43;;
18104;SDS011;9179;50.968;3.134;2022-08-19T04:57:35;16.63;;;10.50;;
18104;SDS011;9179;50.968;3.134;2022-08-19T05:00:04;15.48;;;10.40;;
18104;SDS011;9179;50.968;3.134;2022-08-19T05:02:32;13.93;;;9.68;;
18104;SDS011;9179;50.968;3.134;2022-08-19T05:05:01;11.82;;;9.25;;
18104;SDS011;9179;50.968;3.134;2022-08-19T05:07:29;15.23;;;9.75;;
18104;SDS011;9179;50.968;3.134;2022-08-19T05:09:56;13.20;;;9.38;;
18104;SDS011;9179;50.968;3.134;2022-08-19T05:12:22;11.30;;;9.07;;
18104;SDS011;9179;50.968;3.134;2022-08-19T05:14:50;10.15;;;9.15;;
18104;SDS011;9179;50.968;3.134;2022-08-19T05:17:17;9.80;;;8.80;;
18104;SDS011;9179;50.968;3.134;2022-08-19T05:19:44;15.32;;;10.07;;
18104;SDS011;9179;50.968;3.134;2022-08-19T05:22:29;12.02;;;9.88;;
18104;SDS011;9179;50.968;3.134;2022-08-19T05:25:01;11.85;;;8.98;;
18104;SDS011;9179;50.968;3.134;2022-08-19T05:27:30;11.82;;;8.55;;
18104;SDS011;9179;50.968;3.134;2022-08-19T05:29:57;12.48;;;9.27;;
18104;SDS011;9179;50.968;3.134;2022-08-19T05:32:24;11.23;;;8.88;;
18104;SDS011;9179;50.968;3.134;2022-08-19T05:34:51;11.68;;;9.70;;
18104;SDS011;9179;50.968;3.134;2022-08-19T05:37:18;11.50;;;8.77;;
18104;SDS011;9179;50.968;3.134;2022-08-19T05:39:46;13.80;;;9.38;;
18104;SDS011;9179;50.968;3.134;2022-08-19T05:42:14;11.18;;;8.57;;
18104;SDS011;9179;50.968;3.134;2022-08-19T05:44:42;10.98;;;8.88;;
18104;SDS011;9179;50.968;3.134;2022-08-19T05:47:10;13.85;;;9.13;;
18104;SDS011;9179;50.968;3.134;2022-08-19T05:49:38;10.98;;;9.02;;
18104;SDS011;9179;50.968;3.134;2022-08-19T05:52:05;10.13;;;8.43;;
18104;SDS011;9179;50.968;3.134;2022-08-19T05:54:34;12.48;;;8.35;;
18104;SDS011;9179;50.968;3.134;2022-08-19T05:57:04;10.32;;;8.55;;
18104;SDS011;9179;50.968;3.134;2022-08-19T05:59:31;9.27;;;8.30;;
18104;SDS011;9179;50.968;3.134;2022-08-19T06:02:00;9.68;;;7.07;;
18104;SDS011;9179;50.968;3.134;2022-08-19T06:04:29;9.75;;;7.90;;
18104;SDS011;9179;50.968;3.134;2022-08-19T06:06:56;11.05;;;7.95;;
18104;SDS011;9179;50.968;3.134;2022-08-19T06:09:23;10.80;;;8.25;;
18104;SDS011;9179;50.968;3.134;2022-08-19T06:11:51;11.25;;;7.85;;
18104;SDS011;9179;50.968;3.134;2022-08-19T06:14:22;8.75;;;7.93;;
18104;SDS011;9179;50.968;3.134;2022-08-19T06:16:51;10.05;;;7.82;;
18104;SDS011;9179;50.968;3.134;2022-08-19T06:19:19;9.45;;;7.57;;
18104;SDS011;9179;50.968;3.134;2022-08-19T06:21:49;7.90;;;7.15;;
18104;SDS011;9179;50.968;3.134;2022-08-19T06:24:18;8.73;;;7.50;;
18104;SDS011;9179;50.968;3.134;2022-08-19T06:26:46;8.63;;;7.55;;
18104;SDS011;9179;50.968;3.134;2022-08-19T06:29:15;7.88;;;7.07;;
18104;SDS011;9179;50.968;3.134;2022-08-19T06:31:45;7.78;;;6.72;;
18104;SDS011;9179;50.968;3.134;2022-08-19T06:34:14;8.23;;;6.88;;
18104;SDS011;9179;50.968;3.134;2022-08-19T06:36:43;9.05;;;6.22;;
18104;SDS011;9179;50.968;3.134;2022-08-19T06:39:13;7.63;;;6.82;;
18104;SDS011;9179;50.968;3.134;2022-08-19T06:41:43;8.20;;;6.88;;
18104;SDS011;9179;50.968;3.134;2022-08-19T06:44:12;7.45;;;6.65;;
18104;SDS011;9179;50.968;3.134;2022-08-19T06:46:41;9.80;;;7.03;;
18104;SDS011;9179;50.968;3.134;2022-08-19T06:49:09;11.40;;;8.10;;
18104;SDS011;9179;50.968;3.134;2022-08-19T06:51:39;9.27;;;7.25;;
18104;SDS011;9179;50.968;3.134;2022-08-19T06:54:08;9.15;;;6.88;;
18104;SDS011;9179;50.968;3.134;2022-08-19T06:56:36;8.27;;;7.38;;
18104;SDS011;9179;50.968;3.134;2022-08-19T06:59:05;8.60;;;7.28;;
18104;SDS011;9179;50.968;3.134;2022-08-19T07:01:34;7.75;;;6.95;;
18104;SDS011;9179;50.968;3.134;2022-08-19T07:04:02;8.88;;;7.32;;
18104;SDS011;9179;50.968;3.134;2022-08-19T07:06:31;10.45;;;7.32;;
18104;SDS011;9179;50.968;3.134;2022-08-19T07:08:59;10.48;;;8.00;;
18104;SDS011;9179;50.968;3.134;2022-08-19T07:11:26;11.45;;;7.82;;
18104;SDS011;9179;50.968;3.134;2022-08-19T07:13:53;11.02;;;8.05;;
18104;SDS011;9179;50.968;3.134;2022-08-19T07:16:20;8.88;;;7.97;;
18104;SDS011;9179;50.968;3.134;2022-08-19T07:18:47;7.65;;;6.78;;
18104;SDS011;9179;50.968;3.134;2022-08-19T07:21:17;10.18;;;7.25;;
18104;SDS011;9179;50.968;3.134;2022-08-19T07:23:47;12.52;;;7.35;;
18104;SDS011;9179;50.968;3.134;2022-08-19T07:26:15;9.15;;;7.50;;
18104;SDS011;9179;50.968;3.134;2022-08-19T07:28:44;6.90;;;5.82;;
18104;SDS011;9179;50.968;3.134;2022-08-19T07:31:13;6.50;;;5.40;;
18104;SDS011;9179;50.968;3.134;2022-08-19T07:33:43;8.98;;;6.53;;
18104;SDS011;9179;50.968;3.134;2022-08-19T07:36:11;9.75;;;5.78;;
18104;SDS011;9179;50.968;3.134;2022-08-19T07:38:41;7.22;;;5.65;;
18104;SDS011;9179;50.968;3.134;2022-08-19T07:41:11;7.10;;;4.90;;
18104;SDS011;9179;50.968;3.134;2022-08-19T07:43:40;6.45;;;5.85;;
18104;SDS011;9179;50.968;3.134;2022-08-19T07:46:08;7.53;;;5.13;;
18104;SDS011;9179;50.968;3.134;2022-08-19T07:48:35;5.68;;;5.13;;
18104;SDS011;9179;50.968;3.134;2022-08-19T07:51:03;6.70;;;4.85;;
18104;SDS011;9179;50.968;3.134;2022-08-19T07:53:33;5.30;;;4.50;;
18104;SDS011;9179;50.968;3.134;2022-08-19T07:56:01;7.47;;;4.00;;
18104;SDS011;9179;50.968;3.134;2022-08-19T07:58:31;5.13;;;4.13;;
18104;SDS011;9179;50.968;3.134;2022-08-19T08:00:59;4.82;;;4.40;;
18104;SDS011;9179;50.968;3.134;2022-08-19T08:03:27;6.80;;;4.05;;
18104;SDS011;9179;50.968;3.134;2022-08-19T08:06:08;3.85;;;3.55;;
18104;SDS011;9179;50.968;3.134;2022-08-19T08:08:52;5.47;;;3.22;;
18104;SDS011;9179;50.968;3.134;2022-08-19T08:11:41;4.03;;;3.72;;
18104;SDS011;9179;50.968;3.134;2022-08-19T08:14:16;4.13;;;3.70;;
18104;SDS011;9179;50.968;3.134;2022-08-19T08:16:44;3.38;;;3.08;;
18104;SDS011;9179;50.968;3.134;2022-08-19T08:19:12;3.45;;;3.15;;
18104;SDS011;9179;50.968;3.134;2022-08-19T08:21:40;3.78;;;3.45;;
18104;SDS011;9179;50.968;3.134;2022-08-19T08:24:08;3.65;;;3.35;;
18104;SDS011;9179;50.968;3.134;2022-08-19T08:26:35;4.47;;;3.13;;
18104;SDS011;9179;50.968;3.134;2022-08-19T08:29:02;3.25;;;3.03;;
18104;SDS011;9179;50.968;3.134;2022-08-19T08:31:30;3.22;;;2.38;;
18104;SDS011;9179;50.968;3.134;2022-08-19T08:33:59;4.43;;;2.92;;
18104;SDS011;9179;50.968;3.134;2022-08-19T08:36:25;3.33;;;2.65;;
18104;SDS011;9179;50.968;3.134;2022-08-19T08:38:53;4.05;;;2.80;;
18104;SDS011;9179;50.968;3.134;2022-08-19T08:41:22;4.63;;;2.75;;
18104;SDS011;9179;50.968;3.134;2022-08-19T08:43:54;2.58;;;2.38;;
18104;SDS011;9179;50.968;3.134;2022-08-19T08:46:24;3.40;;;3.10;;
18104;SDS011;9179;50.968;3.134;2022-08-19T08:48:58;2.88;;;2.63;;
18104;SDS011;9179;50.968;3.134;2022-08-19T08:51:29;2.22;;;1.80;;
18104;SDS011;9179;50.968;3.134;2022-08-19T08:54:01;1.83;;;1.73;;
18104;SDS011;9179;50.968;3.134;2022-08-19T08:56:32;1.58;;;1.48;;
18104;SDS011;9179;50.968;3.134;2022-08-19T08:59:00;1.38;;;1.27;;
18104;SDS011;9179;50.968;3.134;2022-08-19T09:01:32;1.48;;;1.00;;
18104;SDS011;9179;50.968;3.134;2022-08-19T09:04:03;2.80;;;1.52;;
18104;SDS011;9179;50.968;3.134;2022-08-19T09:06:33;2.25;;;1.00;;
18104;SDS011;9179;50.968;3.134;2022-08-19T09:09:10;1.10;;;1.00;;
18104;SDS011;9179;50.968;3.134;2022-08-19T09:11:48;1.17;;;1.17;;
18104;SDS011;9179;50.968;3.134;2022-08-19T09:14:28;2.40;;;1.30;;
18104;SDS011;9179;50.968;3.134;2022-08-19T09:17:01;2.13;;;1.00;;
18104;SDS011;9179;50.968;3.134;2022-08-19T09:19:34;2.75;;;1.10;;
18104;SDS011;9179;50.968;3.134;2022-08-19T09:22:02;2.50;;;1.27;;
18104;SDS011;9179;50.968;3.134;2022-08-19T09:24:30;1.55;;;1.45;;
18104;SDS011;9179;50.968;3.134;2022-08-19T09:26:57;2.10;;;1.33;;
18104;SDS011;9179;50.968;3.134;2022-08-19T09:29:23;1.60;;;1.50;;
18104;SDS011;9179;50.968;3.134;2022-08-19T09:31:50;1.90;;;1.08;;
18104;SDS011;9179;50.968;3.134;2022-08-19T09:34:18;1.77;;;1.35;;
18104;SDS011;9179;50.968;3.134;2022-08-19T09:36:46;1.30;;;1.20;;
18104;SDS011;9179;50.968;3.134;2022-08-19T09:39:14;1.33;;;1.20;;
18104;SDS011;9179;50.968;3.134;2022-08-19T09:41:41;1.15;;;1.05;;
18104;SDS011;9179;50.968;3.134;2022-08-19T09:44:08;1.85;;;1.50;;
18104;SDS011;9179;50.968;3.134;2022-08-19T09:46:36;1.73;;;1.20;;
18104;SDS011;9179;50.968;3.134;2022-08-19T09:49:03;1.73;;;1.40;;
18104;SDS011;9179;50.968;3.134;2022-08-19T09:51:31;1.38;;;1.27;;
18104;SDS011;9179;50.968;3.134;2022-08-19T09:54:00;1.38;;;1.38;;
18104;SDS011;9179;50.968;3.134;2022-08-19T09:56:29;2.30;;;1.33;;
18104;SDS011;9179;50.968;3.134;2022-08-19T09:58:57;1.65;;;1.30;;
18104;SDS011;9179;50.968;3.134;2022-08-19T10:01:28;1.50;;;1.25;;
18104;SDS011;9179;50.968;3.134;2022-08-19T10:03:57;4.32;;;3.92;;
18104;SDS011;9179;50.968;3.134;2022-08-19T10:06:27;1.20;;;1.20;;
18104;SDS011;9179;50.968;3.134;2022-08-19T10:08:57;2.30;;;1.33;;
18104;SDS011;9179;50.968;3.134;2022-08-19T10:11:26;1.90;;;1.23;;
18104;SDS011;9179;50.968;3.134;2022-08-19T10:13:54;2.00;;;1.00;;
18104;SDS011;9179;50.968;3.134;2022-08-19T10:16:22;0.90;;;0.90;;
18104;SDS011;9179;50.968;3.134;2022-08-19T10:18:50;1.35;;;0.93;;
18104;SDS011;9179;50.968;3.134;2022-08-19T10:21:19;0.90;;;0.90;;
18104;SDS011;9179;50.968;3.134;2022-08-19T10:23:48;1.33;;;1.23;;
18104;SDS011;9179;50.968;3.134;2022-08-19T10:26:21;0.73;;;0.73;;
18104;SDS011;9179;50.968;3.134;2022-08-19T10:28:50;2.00;;;0.98;;
18104;SDS011;9179;50.968;3.134;2022-08-19T10:31:18;1.38;;;0.95;;
18104;SDS011;9179;50.968;3.134;2022-08-19T10:33:48;2.42;;;1.30;;
18104;SDS011;9179;50.968;3.134;2022-08-19T10:36:16;1.10;;;1.10;;
18104;SDS011;9179;50.968;3.134;2022-08-19T10:38:45;0.95;;;0.80;;
18104;SDS011;9179;50.968;3.134;2022-08-19T10:41:15;2.35;;;1.15;;
18104;SDS011;9179;50.968;3.134;2022-08-19T10:43:44;1.02;;;0.60;;
18104;SDS011;9179;50.968;3.134;2022-08-19T10:46:14;1.50;;;1.35;;
18104;SDS011;9179;50.968;3.134;2022-08-19T10:48:41;1.83;;;1.00;;
18104;SDS011;9179;50.968;3.134;2022-08-19T10:51:09;0.95;;;0.95;;
18104;SDS011;9179;50.968;3.134;2022-08-19T10:53:54;0.90;;;0.90;;
18104;SDS011;9179;50.968;3.134;2022-08-19T10:56:22;0.73;;;0.63;;
18104;SDS011;9179;50.968;3.134;2022-08-19T10:59:07;1.23;;;1.10;;
18104;SDS011;9179;50.968;3.134;2022-08-19T11:01:35;0.70;;;0.70;;
18104;SDS011;9179;50.968;3.134;2022-08-19T11:04:02;0.82;;;0.82;;
18104;SDS011;9179;50.968;3.134;2022-08-19T11:06:30;0.93;;;0.93;;
18104;SDS011;9179;50.968;3.134;2022-08-19T11:08:58;1.38;;;1.02;;
18104;SDS011;9179;50.968;3.134;2022-08-19T11:11:25;1.90;;;1.10;;
18104;SDS011;9179;50.968;3.134;2022-08-19T11:13:53;1.38;;;1.27;;
18104;SDS011;9179;50.968;3.134;2022-08-19T11:16:23;1.27;;;1.02;;
18104;SDS011;9179;50.968;3.134;2022-08-19T11:18:52;4.70;;;1.83;;
18104;SDS011;9179;50.968;3.134;2022-08-19T11:21:21;2.30;;;1.80;;
18104;SDS011;9179;50.968;3.134;2022-08-19T11:23:50;1.90;;;1.70;;
18104;SDS011;9179;50.968;3.134;2022-08-19T11:26:20;1.80;;;1.67;;
18104;SDS011;9179;50.968;3.134;2022-08-19T11:28:48;2.15;;;1.73;;
18104;SDS011;9179;50.968;3.134;2022-08-19T11:31:17;2.00;;;1.70;;
18104;SDS011;9179;50.968;3.134;2022-08-19T11:33:47;1.88;;;1.77;;
18104;SDS011;9179;50.968;3.134;2022-08-19T11:36:15;1.90;;;1.77;;
18104;SDS011;9179;50.968;3.134;2022-08-19T11:38:43;3.72;;;2.40;;
18104;SDS011;9179;50.968;3.134;2022-08-19T11:41:10;3.38;;;2.30;;
18104;SDS011;9179;50.968;3.134;2022-08-19T11:43:37;3.78;;;1.67;;
18104;SDS011;9179;50.968;3.134;2022-08-19T11:46:05;1.80;;;1.42;;
18104;SDS011;9179;50.968;3.134;2022-08-19T11:48:33;2.25;;;2.05;;
18104;SDS011;9179;50.968;3.134;2022-08-19T11:51:03;4.65;;;2.33;;
18104;SDS011;9179;50.968;3.134;2022-08-19T11:53:32;3.50;;;2.58;;
18104;SDS011;9179;50.968;3.134;2022-08-19T11:55:59;4.05;;;1.73;;
18104;SDS011;9179;50.968;3.134;2022-08-19T11:58:26;3.05;;;1.90;;
18104;SDS011;9179;50.968;3.134;2022-08-19T12:00:54;4.75;;;2.30;;
18104;SDS011;9179;50.968;3.134;2022-08-19T12:03:21;4.50;;;2.90;;
18104;SDS011;9179;50.968;3.134;2022-08-19T12:05:48;3.88;;;3.03;;
18104;SDS011;9179;50.968;3.134;2022-08-19T12:08:17;6.35;;;4.00;;
18104;SDS011;9179;50.968;3.134;2022-08-19T12:10:44;5.03;;;3.40;;
18104;SDS011;9179;50.968;3.134;2022-08-19T12:13:12;7.32;;;3.22;;
18104;SDS011;9179;50.968;3.134;2022-08-19T12:15:40;4.63;;;3.67;;
18104;SDS011;9179;50.968;3.134;2022-08-19T12:18:07;4.00;;;2.83;;
18104;SDS011;9179;50.968;3.134;2022-08-19T12:20:35;4.40;;;3.50;;
18104;SDS011;9179;50.968;3.134;2022-08-19T12:23:05;5.68;;;2.90;;
18104;SDS011;9179;50.968;3.134;2022-08-19T12:25:34;5.00;;;2.80;;
18104;SDS011;9179;50.968;3.134;2022-08-19T12:28:01;3.92;;;2.50;;
18104;SDS011;9179;50.968;3.134;2022-08-19T12:30:29;3.35;;;2.92;;
18104;SDS011;9179;50.968;3.134;2022-08-19T12:32:56;3.55;;;2.10;;
18104;SDS011;9179;50.968;3.134;2022-08-19T12:35:23;4.72;;;1.98;;
18104;SDS011;9179;50.968;3.134;2022-08-19T12:37:50;3.58;;;2.08;;
18104;SDS011;9179;50.968;3.134;2022-08-19T12:40:17;5.10;;;2.63;;
18104;SDS011;9179;50.968;3.134;2022-08-19T12:42:46;3.25;;;2.38;;
18104;SDS011;9179;50.968;3.134;2022-08-19T12:45:15;2.90;;;2.45;;
18104;SDS011;9179;50.968;3.134;2022-08-19T12:47:42;4.35;;;2.63;;
18104;SDS011;9179;50.968;3.134;2022-08-19T12:50:08;3.35;;;2.50;;
18104;SDS011;9179;50.968;3.134;2022-08-19T12:52:36;4.00;;;2.92;;
18104;SDS011;9179;50.968;3.134;2022-08-19T12:55:04;4.90;;;3.20;;
18104;SDS011;9179;50.968;3.134;2022-08-19T12:57:32;3.58;;;3.05;;
18104;SDS011;9179;50.968;3.134;2022-08-19T13:00:03;6.25;;;3.88;;
18104;SDS011;9179;50.968;3.134;2022-08-19T13:02:34;3.85;;;3.20;;
18104;SDS011;9179;50.968;3.134;2022-08-19T13:05:01;3.17;;;2.88;;
18104;SDS011;9179;50.968;3.134;2022-08-19T13:07:28;4.85;;;3.08;;
18104;SDS011;9179;50.968;3.134;2022-08-19T13:09:55;4.00;;;2.60;;
18104;SDS011;9179;50.968;3.134;2022-08-19T13:12:22;3.13;;;1.92;;
18104;SDS011;9179;50.968;3.134;2022-08-19T13:14:51;3.83;;;2.28;;
18104;SDS011;9179;50.968;3.134;2022-08-19T13:17:20;3.95;;;2.90;;
18104;SDS011;9179;50.968;3.134;2022-08-19T13:19:47;3.50;;;2.30;;
18104;SDS011;9179;50.968;3.134;2022-08-19T13:22:14;5.90;;;2.83;;
18104;SDS011;9179;50.968;3.134;2022-08-19T13:24:41;4.47;;;3.08;;
18104;SDS011;9179;50.968;3.134;2022-08-19T13:27:08;5.95;;;3.42;;
18104;SDS011;9179;50.968;3.134;2022-08-19T13:29:35;4.38;;;2.95;;
18104;SDS011;9179;50.968;3.134;2022-08-19T13:32:20;3.75;;;3.40;;
18104;SDS011;9179;50.968;3.134;2022-08-19T13:35:05;5.38;;;3.10;;
18104;SDS011;9179;50.968;3.134;2022-08-19T13:37:32;5.30;;;3.30;;
18104;SDS011;9179;50.968;3.134;2022-08-19T13:40:08;5.15;;;2.70;;
18104;SDS011;9179;50.968;3.134;2022-08-19T13:42:39;3.40;;;3.03;;
18104;SDS011;9179;50.968;3.134;2022-08-19T13:45:06;3.97;;;3.03;;
18104;SDS011;9179;50.968;3.134;2022-08-19T13:47:36;5.25;;;3.05;;
18104;SDS011;9179;50.968;3.134;2022-08-19T13:50:07;2.65;;;1.30;;
18104;SDS011;9179;50.968;3.134;2022-08-19T13:52:35;3.58;;;1.50;;
18104;SDS011;9179;50.968;3.134;2022-08-19T13:55:02;3.22;;;1.52;;
18104;SDS011;9179;50.968;3.134;2022-08-19T13:57:30;2.03;;;1.20;;
18104;SDS011;9179;50.968;3.134;2022-08-19T13:59:57;3.63;;;1.50;;
18104;SDS011;9179;50.968;3.134;2022-08-19T14:02:24;1.25;;;1.15;;
18104;SDS011;9179;50.968;3.134;2022-08-19T14:04:53;2.63;;;1.65;;
18104;SDS011;9179;50.968;3.134;2022-08-19T14:07:20;1.50;;;1.40;;
18104;SDS011;9179;50.968;3.134;2022-08-19T14:09:48;1.95;;;1.30;;
18104;SDS011;9179;50.968;3.134;2022-08-19T14:12:18;1.77;;;1.00;;
18104;SDS011;9179;50.968;3.134;2022-08-19T14:14:45;1.20;;;0.88;;
18104;SDS011;9179;50.968;3.134;2022-08-19T14:17:12;2.38;;;1.33;;
18104;SDS011;9179;50.968;3.134;2022-08-19T14:19:39;1.67;;;1.05;;
18104;SDS011;9179;50.968;3.134;2022-08-19T14:22:07;3.05;;;1.30;;
18104;SDS011;9179;50.968;3.134;2022-08-19T14:24:36;1.52;;;1.20;;
18104;SDS011;9179;50.968;3.134;2022-08-19T14:27:03;2.72;;;1.30;;
18104;SDS011;9179;50.968;3.134;2022-08-19T14:29:31;1.80;;;1.10;;
18104;SDS011;9179;50.968;3.134;2022-08-19T14:31:58;2.42;;;1.33;;
18104;SDS011;9179;50.968;3.134;2022-08-19T14:34:25;2.80;;;1.20;;
18104;SDS011;9179;50.968;3.134;2022-08-19T14:36:52;3.63;;;1.42;;
18104;SDS011;9179;50.968;3.134;2022-08-19T14:39:20;1.70;;;1.55;;
18104;SDS011;9179;50.968;3.134;2022-08-19T14:41:47;3.50;;;1.73;;
18104;SDS011;9179;50.968;3.134;2022-08-19T14:44:14;2.03;;;1.55;;
18104;SDS011;9179;50.968;3.134;2022-08-19T14:46:41;2.53;;;1.20;;
18104;SDS011;9179;50.968;3.134;2022-08-19T14:49:10;1.40;;;1.30;;
18104;SDS011;9179;50.968;3.134;2022-08-19T14:51:37;1.30;;;1.20;;
18104;SDS011;9179;50.968;3.134;2022-08-19T14:54:04;1.52;;;1.02;;
18104;SDS011;9179;50.968;3.134;2022-08-19T14:56:32;1.90;;;1.25;;
18104;SDS011;9179;50.968;3.134;2022-08-19T14:58:59;2.65;;;1.38;;